Albany, NY (12205)

9:15 PM EDT en Mayo 24, 2015 (GMT -0400)
Colonie | | Change Station
CLOSE
Current Station
Estación meteorológica personal
Location: Albany, NY
Altura: 302 ft
Estaciones meteorológicas cercanas

Alt 302 ft 42.73 °N, 73.82 °W | Updated 1 minute ago

Overcast
Nublado
67.5 ° F
Sensación térmica 67.5 ° F
N
0.0
Viento Variable Viento desde Norte
Gusts 0.0 mph

Hoy
Alta -- | Baja -- ° F
--% Posibilidad de precipitaciones
Ayer
Alta -- | Baja -- ° F
Precip. -- pul
5:25 AM 8:19 PM
Creciente, 44% visible
Presión 30.19 pul
Visibilidad 10.0 Millas
Nubes Baja 11000 ft
Nubes dispersas 20000 ft
Nublado 24000 ft
Punto de rocío 44 ° F
Humedad 43%
Precipitaciones 0.00 pul
Espesor de la nieve No disponible.
UV 0 de una escala de 12
Polen 9.70 de una escala de 12
Calidad del aire No disponible.
Flu Activity Widespread
METAR KALB 250051Z 00000KT 10SM FEW110 SCT200 OVC240 19/08 A3019 RMK AO2 SLP222 T01940078

More Conditions Fewer Conditions

Presión 30.19 pul
Visibilidad 10.0 Millas
Nubes Baja 11000 ft
Nubes dispersas 20000 ft
Nublado 24000 ft
Punto de rocío 44 ° F
Humedad 43%
Precipitaciones 0.00 pul
Espesor de la nieve No disponible.
UV 0 de una escala de 12
Polen 9.70 de una escala de 12
Calidad del aire No disponible.
Flu Activity Widespread
METAR KALB 250051Z 00000KT 10SM FEW110 SCT200 OVC240 19/08 A3019 RMK AO2 SLP222 T01940078

More Conditions Fewer Conditions

10-Day Weather Forecast

Almanac

Astronomía

May. 24, 2015 Salida Puesta
Hora real
Crepúsculo civil
Crepúsculo náutico
Crepúsculo astronómico
Luna
Horas de luz
Horas de luz
Tomorrow will be .
, % of the Moon is Illuminated

Extremos de hoy

Máximos del estado Bajos del estado

Community

WunderPhotos

Upload Photos

1,823,916 ¡fotos cargadas!

WunderBlogs® & News

Nearby

Calidad del aire

  Calidad del aire Índice AQ Contaminante
Not available.

Grosos de nieve

Estación Profundido Altura

Actividad de terremotos

Ciudad Distance Mag. Tiempo y dato
Magnitud mínima muestra es 2,5.

Temperaturas de aguas costeras

Lugar Temperatura

Stations

Estaciones meteorológicas cercanas

Ubicación de la estación Temp. Vientos helados Punto de rocío Humedad Viento Precip. Alt Actualizado Tipo